Time;durP1;ratioP1;P1;durP2;ratioP2;P2;SDS_P1;SDS_P2;PMS_P1;PMS_P2;Temp;Humidity;BMP_temperature;BMP_pressure;BME280_temperature;BME280_humidity;BME280_pressure;Samples;Min_cycle;Max_cycle;Signal;HPM_P1;HPM_P2
2022/01/01 00:00:33;;;;;;;2.47;2.23;;;10.90;99.90;;;;;;5015691;28;20190;-78
2022/01/01 00:02:59;;;;;;;5.07;2.83;;;10.90;99.90;;;;;;5033570;28;20220;-80
2022/01/01 00:05:25;;;;;;;3.80;3.50;;;10.90;99.90;;;;;;5032559;28;20908;-78
2022/01/01 00:07:50;;;;;;;5.67;3.93;;;10.80;99.90;;;;;;5035448;28;20962;-79
2022/01/01 00:10:18;;;;;;;8.30;5.17;;;10.80;99.90;;;;;;5034453;28;20209;-78
2022/01/01 00:12:43;;;;;;;6.00;4.57;;;10.80;99.90;;;;;;5032544;28;20177;-78
2022/01/01 00:15:09;;;;;;;13.03;5.00;;;10.70;99.90;;;;;;5035166;28;20418;-80
2022/01/01 00:17:35;;;;;;;34.27;18.13;;;10.60;99.90;;;;;;5034957;28;20177;-79
2022/01/01 00:20:00;;;;;;;29.13;15.67;;;10.40;99.90;;;;;;5034768;28;20227;-79
2022/01/01 00:22:26;;;;;;;19.60;11.23;;;10.30;99.90;;;;;;5032943;28;20197;-78
2022/01/01 00:24:51;;;;;;;17.27;10.17;;;10.10;99.90;;;;;;5033711;28;20345;-76
2022/01/01 00:27:17;;;;;;;29.40;14.83;;;10.00;99.90;;;;;;5001020;28;20223;-79
2022/01/01 00:29:43;;;;;;;14.83;9.57;;;9.80;99.90;;;;;;5033150;28;20574;-78
2022/01/01 00:32:08;;;;;;;20.87;11.90;;;9.70;99.90;;;;;;5017172;28;20269;-78
2022/01/01 00:34:35;;;;;;;50.43;21.90;;;9.70;99.90;;;;;;5015760;28;20188;-79
2022/01/01 00:37:01;;;;;;;46.87;20.40;;;9.60;99.90;;;;;;5032919;28;20200;-79
2022/01/01 00:39:26;;;;;;;30.73;14.23;;;9.60;99.90;;;;;;5033861;28;21003;-79
2022/01/01 00:41:52;;;;;;;30.97;17.10;;;9.50;99.90;;;;;;4999893;28;20287;-79
2022/01/01 00:44:18;;;;;;;20.77;13.00;;;9.50;99.90;;;;;;5034699;28;20188;-78
2022/01/01 00:46:43;;;;;;;21.43;12.80;;;9.50;99.90;;;;;;5034792;28;20216;-78
2022/01/01 00:49:09;;;;;;;13.00;8.57;;;9.50;99.90;;;;;;5033192;28;20208;-78
2022/01/01 00:51:35;;;;;;;14.10;8.17;;;9.40;99.90;;;;;;5032486;28;20278;-78
2022/01/01 00:54:00;;;;;;;13.70;8.37;;;9.40;99.90;;;;;;5015788;28;20621;-78
2022/01/01 00:56:26;;;;;;;13.90;8.30;;;9.50;99.90;;;;;;5033180;28;20563;-78
2022/01/01 00:58:52;;;;;;;10.00;7.30;;;9.40;99.90;;;;;;5034276;28;20205;-78
2022/01/01 01:01:18;;;;;;;12.50;7.50;;;9.50;99.90;;;;;;5034041;28;20502;-78
2022/01/01 01:03:43;;;;;;;10.40;7.30;;;9.30;99.90;;;;;;5032602;28;20190;-77
2022/01/01 01:06:12;;;;;;;12.53;8.00;;;9.20;99.90;;;;;;5032747;28;20709;-77
2022/01/01 01:08:37;;;;;;;7.53;5.97;;;9.30;99.90;;;;;;5032669;28;20201;-77
2022/01/01 01:11:08;;;;;;;9.40;5.57;;;9.30;99.90;;;;;;5034590;28;20426;-77
2022/01/01 01:13:34;;;;;;;6.40;5.17;;;9.40;99.90;;;;;;5032851;28;20172;-78
2022/01/01 01:16:00;;;;;;;5.60;4.33;;;9.40;99.90;;;;;;5032915;28;20434;-77
2022/01/01 01:18:26;;;;;;;5.40;4.50;;;9.40;99.90;;;;;;5032211;28;20450;-78
2022/01/01 01:20:55;;;;;;;4.33;3.73;;;9.40;99.90;;;;;;5014764;28;20565;-78
2022/01/01 01:23:21;;;;;;;7.47;5.43;;;9.40;99.90;;;;;;5031640;28;20419;-78
2022/01/01 01:25:46;;;;;;;6.00;4.37;;;9.40;99.90;;;;;;5031179;28;20482;-78
2022/01/01 01:28:14;;;;;;;5.13;3.73;;;9.40;99.90;;;;;;5013908;28;20208;-78
2022/01/01 01:30:40;;;;;;;6.80;5.10;;;9.40;99.90;;;;;;5031880;28;20211;-78
2022/01/01 01:33:10;;;;;;;6.00;4.40;;;9.20;99.90;;;;;;5030583;28;20783;-77
2022/01/01 01:35:36;;;;;;;4.37;3.97;;;9.20;99.90;;;;;;5013089;28;20527;-78
2022/01/01 01:38:02;;;;;;;4.13;3.63;;;9.20;99.90;;;;;;5029418;28;20458;-78
2022/01/01 01:40:29;;;;;;;8.67;6.23;;;9.20;99.90;;;;;;5031388;28;20428;-79
2022/01/01 01:42:54;;;;;;;5.53;4.40;;;9.20;99.90;;;;;;5029937;28;20430;-78
2022/01/01 01:45:22;;;;;;;3.63;3.00;;;9.20;99.90;;;;;;5032686;28;20879;-78
2022/01/01 01:47:50;;;;;;;2.93;2.63;;;9.20;99.90;;;;;;5034394;28;20529;-77
2022/01/01 01:50:17;;;;;;;10.43;8.00;;;9.20;99.90;;;;;;5034929;28;20415;-79
2022/01/01 01:52:53;;;;;;;4.13;2.60;;;9.20;99.90;;;;;;5033444;28;20390;-78
2022/01/01 01:55:19;;;;;;;6.23;5.63;;;9.20;99.90;;;;;;5032371;28;20485;-78
2022/01/01 01:57:45;;;;;;;3.23;2.77;;;9.30;99.90;;;;;;5031512;28;20419;-78
2022/01/01 02:02:46;;;;;;;2.80;2.50;;;9.20;99.90;;;;;;5031164;28;20263;-77
2022/01/01 02:05:11;;;;;;;3.20;2.57;;;9.20;99.90;;;;;;5030790;28;20980;-78
2022/01/01 02:07:37;;;;;;;3.53;2.83;;;9.20;99.90;;;;;;5031234;28;20177;-78
2022/01/01 02:10:04;;;;;;;4.00;3.50;;;9.10;99.90;;;;;;5027869;28;20576;-78
2022/01/01 02:12:30;;;;;;;6.47;4.40;;;9.10;99.90;;;;;;5030587;28;20721;-78
2022/01/01 02:17:30;;;;;;;2.97;2.40;;;9.00;99.90;;;;;;5029435;28;20214;-76
2022/01/01 02:20:02;;;;;;;2.10;2.00;;;9.00;99.90;;;;;;5030500;28;20911;-78
2022/01/01 02:22:45;;;;;;;4.10;2.00;;;9.00;99.90;;;;;;5031040;28;20796;-77
2022/01/01 02:25:11;;;;;;;2.30;1.97;;;9.00;99.90;;;;;;5030351;28;20425;-78
2022/01/01 02:27:38;;;;;;;2.33;2.13;;;9.10;99.90;;;;;;5030410;28;20429;-78
2022/01/01 02:30:09;;;;;;;3.03;2.73;;;9.10;99.90;;;;;;5029324;28;20733;-79
2022/01/01 02:32:35;;;;;;;8.57;7.67;;;9.10;99.90;;;;;;5031143;28;20411;-79
2022/01/01 02:35:01;;;;;;;7.30;5.00;;;9.10;99.90;;;;;;5030822;28;20423;-78
2022/01/01 02:37:26;;;;;;;3.90;3.00;;;9.00;99.90;;;;;;5029603;28;20192;-78
2022/01/01 02:39:52;;;;;;;2.27;2.07;;;9.00;99.90;;;;;;5013544;28;20239;-78
2022/01/01 02:42:22;;;;;;;2.77;2.17;;;9.10;99.90;;;;;;5032688;28;20269;-78
2022/01/01 02:44:50;;;;;;;2.57;2.37;;;9.10;99.90;;;;;;5031951;28;20230;-78
2022/01/01 02:47:15;;;;;;;3.63;2.23;;;9.10;99.90;;;;;;5030494;28;20469;-78
2022/01/01 02:49:41;;;;;;;3.13;1.90;;;9.10;99.90;;;;;;5031572;28;20442;-77
2022/01/01 02:52:07;;;;;;;2.40;2.20;;;9.20;99.90;;;;;;5031546;28;20196;-78
2022/01/01 02:54:32;;;;;;;3.13;2.30;;;9.20;99.90;;;;;;5014216;28;20244;-78
2022/01/01 02:56:58;;;;;;;1.90;1.80;;;9.10;99.90;;;;;;5030675;28;20432;-78
2022/01/01 02:59:24;;;;;;;2.53;2.33;;;9.10;99.90;;;;;;5029538;28;20211;-78
2022/01/01 03:01:49;;;;;;;5.40;2.10;;;9.20;99.90;;;;;;5029399;28;20180;-78
2022/01/01 03:04:15;;;;;;;2.47;2.27;;;9.10;99.90;;;;;;5029350;28;20267;-78
2022/01/01 03:06:41;;;;;;;2.53;2.33;;;9.20;99.90;;;;;;5030841;28;20213;-78
2022/01/01 03:09:06;;;;;;;2.33;2.13;;;9.20;99.90;;;;;;5028922;28;20228;-79
2022/01/01 03:11:32;;;;;;;5.50;2.53;;;9.20;99.90;;;;;;5030073;28;20196;-78
2022/01/01 03:13:58;;;;;;;11.30;7.97;;;9.10;99.90;;;;;;5012433;28;20937;-78
2022/01/01 03:16:23;;;;;;;15.20;9.70;;;8.70;99.90;;;;;;5030626;28;20233;-79
2022/01/01 03:18:49;;;;;;;16.33;11.30;;;8.20;99.90;;;;;;5033940;28;20212;-79
2022/01/01 03:21:15;;;;;;;20.10;13.87;;;7.70;99.90;;;;;;5034964;28;20188;-78
2022/01/01 03:23:40;;;;;;;27.03;17.40;;;7.60;99.90;;;;;;5032709;28;20658;-78
2022/01/01 03:26:06;;;;;;;41.60;21.80;;;7.40;99.90;;;;;;5032265;28;20215;-78
2022/01/01 03:28:32;;;;;;;43.17;25.10;;;7.30;99.90;;;;;;5015845;28;20204;-77
2022/01/01 03:30:58;;;;;;;46.83;28.93;;;7.10;99.90;;;;;;5032508;28;20646;-77
2022/01/01 03:33:24;;;;;;;50.23;30.43;;;7.00;99.90;;;;;;5032651;28;20188;-77
2022/01/01 03:35:50;;;;;;;50.90;29.30;;;7.00;99.90;;;;;;5032189;28;20757;-78
2022/01/01 03:38:17;;;;;;;51.90;31.37;;;6.90;99.90;;;;;;5032943;28;20439;-76
2022/01/01 03:40:43;;;;;;;52.43;31.57;;;7.10;99.90;;;;;;5035815;28;20497;-78
2022/01/01 03:43:09;;;;;;;62.60;32.77;;;6.90;99.90;;;;;;5034126;28;20456;-78
2022/01/01 03:45:36;;;;;;;51.37;30.37;;;6.90;99.90;;;;;;5035397;28;20496;-78
2022/01/01 03:48:05;;;;;;;53.40;31.00;;;6.80;99.90;;;;;;5035268;28;20679;-77
2022/01/01 03:50:31;;;;;;;51.83;28.13;;;6.90;99.90;;;;;;5035031;28;20440;-77
2022/01/01 03:52:57;;;;;;;51.20;28.73;;;6.90;99.90;;;;;;5018855;28;21298;-78
2022/01/01 03:55:23;;;;;;;45.50;28.93;;;6.90;99.90;;;;;;5036006;28;20424;-77
2022/01/01 03:57:49;;;;;;;49.83;29.47;;;7.00;99.90;;;;;;5018958;28;20205;-78
2022/01/01 04:00:16;;;;;;;51.20;29.23;;;7.00;99.90;;;;;;5038376;28;20415;-77
2022/01/01 04:02:41;;;;;;;41.30;26.23;;;7.00;99.90;;;;;;5035053;28;20185;-77
2022/01/01 04:05:07;;;;;;;44.00;26.43;;;7.00;99.90;;;;;;5036821;28;21033;-78
2022/01/01 04:07:33;;;;;;;41.30;23.03;;;7.10;99.90;;;;;;5035342;28;20727;-78
2022/01/01 04:09:59;;;;;;;45.83;25.40;;;7.00;99.90;;;;;;5035615;28;20443;-79
2022/01/01 04:12:25;;;;;;;41.67;24.00;;;6.90;99.90;;;;;;5035697;28;20477;-79
2022/01/01 04:14:52;;;;;;;42.80;22.90;;;6.90;99.90;;;;;;5036520;28;20318;-76
2022/01/01 04:17:18;;;;;;;39.53;22.20;;;6.90;99.90;;;;;;5035479;28;20420;-78
2022/01/01 04:19:44;;;;;;;33.87;19.80;;;6.90;99.90;;;;;;5035154;28;20439;-78
2022/01/01 04:22:12;;;;;;;32.63;18.10;;;6.90;99.90;;;;;;5036181;28;20423;-78
2022/01/01 04:24:38;;;;;;;28.70;18.70;;;7.00;99.90;;;;;;5035309;28;20513;-79
2022/01/01 04:27:05;;;;;;;30.67;18.67;;;7.20;99.90;;;;;;5035950;28;20570;-77
2022/01/01 04:29:31;;;;;;;31.13;17.70;;;7.30;99.90;;;;;;5034971;28;20991;-77
2022/01/01 04:31:57;;;;;;;29.87;17.57;;;7.30;99.90;;;;;;5035237;28;20483;-77
2022/01/01 04:34:24;;;;;;;28.17;16.60;;;7.40;99.90;;;;;;5035343;28;20419;-77
2022/01/01 04:37:07;;;;;;;28.77;16.70;;;7.40;99.90;;;;;;5036785;28;20462;-80
2022/01/01 04:39:33;;;;;;;33.00;16.27;;;7.50;99.90;;;;;;5034717;28;20448;-78
2022/01/01 04:41:58;;;;;;;23.50;15.33;;;7.60;99.90;;;;;;5018591;28;20427;-78
2022/01/01 04:44:24;;;;;;;25.03;15.23;;;7.60;99.90;;;;;;5036253;28;20206;-78
2022/01/01 04:46:50;;;;;;;18.33;12.83;;;7.60;99.90;;;;;;5035049;28;20208;-78
2022/01/01 04:49:15;;;;;;;20.77;12.60;;;7.60;99.90;;;;;;5035264;28;20197;-78
2022/01/01 04:51:41;;;;;;;17.87;10.50;;;7.70;99.90;;;;;;5034624;28;20201;-78
2022/01/01 04:54:14;;;;;;;50.60;27.07;;;7.60;99.90;;;;;;5033536;28;20189;-78
2022/01/01 04:56:43;;;;;;;28.53;15.03;;;7.70;99.90;;;;;;5030922;28;20165;-77
2022/01/01 04:59:11;;;;;;;17.50;9.17;;;7.70;99.90;;;;;;5034443;28;20929;-78
2022/01/01 05:01:36;;;;;;;8.80;5.50;;;7.80;99.90;;;;;;5032772;28;20419;-79
2022/01/01 05:04:02;;;;;;;7.93;4.60;;;7.80;99.90;;;;;;5033780;28;20690;-78
2022/01/01 05:06:28;;;;;;;3.43;3.00;;;7.90;99.90;;;;;;5034839;28;20235;-77
2022/01/01 05:08:53;;;;;;;1.93;1.83;;;8.00;99.90;;;;;;5033031;28;20463;-77
2022/01/01 05:11:19;;;;;;;2.30;1.73;;;8.00;99.90;;;;;;5033145;28;20184;-78
2022/01/01 05:13:45;;;;;;;1.90;1.80;;;8.20;99.90;;;;;;5032846;28;20188;-78
2022/01/01 05:16:15;;;;;;;2.30;1.60;;;8.30;99.90;;;;;;5033661;28;20192;-78
2022/01/01 05:18:41;;;;;;;3.00;1.57;;;8.40;99.90;;;;;;5033196;28;20579;-78
2022/01/01 05:21:06;;;;;;;2.93;1.10;;;8.50;99.90;;;;;;5035269;28;20498;-75
2022/01/01 05:23:32;;;;;;;1.70;1.40;;;8.70;99.90;;;;;;5031448;28;20217;-76
2022/01/01 05:25:58;;;;;;;2.00;1.57;;;9.10;99.90;;;;;;5013933;28;20626;-78
2022/01/01 05:28:24;;;;;;;1.17;1.07;;;9.20;99.90;;;;;;5031512;28;20441;-77
2022/01/01 05:30:50;;;;;;;1.50;1.40;;;9.40;99.90;;;;;;5031481;28;20441;-75
2022/01/01 05:33:16;;;;;;;3.40;1.20;;;9.50;99.90;;;;;;5031204;28;20423;-76
2022/01/01 05:35:42;;;;;;;2.30;1.27;;;9.40;99.90;;;;;;5029878;28;20428;-78
2022/01/01 05:38:08;;;;;;;2.60;1.30;;;9.30;99.90;;;;;;5031293;28;20258;-77
2022/01/01 05:40:33;;;;;;;1.70;1.60;;;9.10;99.90;;;;;;5032531;28;20840;-77
2022/01/01 05:42:59;;;;;;;1.73;1.53;;;8.90;99.90;;;;;;5035145;28;20189;-78
2022/01/01 05:45:24;;;;;;;1.30;1.20;;;8.70;99.90;;;;;;5032700;28;20189;-78
2022/01/01 05:47:50;;;;;;;1.20;0.90;;;8.50;99.90;;;;;;5032370;28;20547;-78
2022/01/01 05:50:25;;;;;;;2.00;1.80;;;8.30;99.90;;;;;;5032463;28;20243;-78
2022/01/01 05:52:51;;;;;;;1.93;1.40;;;8.20;99.90;;;;;;5034415;28;20172;-78
2022/01/01 05:55:16;;;;;;;1.40;1.27;;;8.00;99.90;;;;;;5033752;28;20480;-78
2022/01/01 05:57:42;;;;;;;1.50;1.20;;;7.80;99.90;;;;;;5016268;28;20184;-79
2022/01/01 06:00:08;;;;;;;2.37;1.50;;;7.90;99.90;;;;;;5031774;28;20288;-79
2022/01/01 06:02:41;;;;;;;2.00;1.90;;;8.00;99.90;;;;;;5032085;28;20226;-78
2022/01/01 06:05:07;;;;;;;4.40;1.67;;;8.00;99.90;;;;;;5031190;28;20928;-78
2022/01/01 06:07:32;;;;;;;3.13;1.03;;;8.00;99.90;;;;;;5029533;28;20474;-79
2022/01/01 06:09:59;;;;;;;2.10;1.30;;;8.00;99.90;;;;;;5013823;28;20467;-79
2022/01/01 06:12:25;;;;;;;1.50;1.40;;;8.00;99.90;;;;;;5032377;28;20661;-77
2022/01/01 06:14:51;;;;;;;1.90;1.30;;;8.00;99.90;;;;;;5032608;28;20835;-77
2022/01/01 06:17:17;;;;;;;1.57;1.40;;;7.90;99.90;;;;;;5032238;28;20482;-77
2022/01/01 06:19:43;;;;;;;1.50;1.40;;;7.90;99.90;;;;;;5031922;28;20471;-78
2022/01/01 06:22:08;;;;;;;1.10;0.93;;;7.80;99.90;;;;;;5031857;28;20665;-77
2022/01/01 06:24:34;;;;;;;1.93;1.50;;;7.90;99.90;;;;;;5030568;28;20571;-78
2022/01/01 06:27:00;;;;;;;1.30;1.20;;;7.90;99.90;;;;;;5013454;28;20272;-79
2022/01/01 06:29:25;;;;;;;4.57;3.33;;;7.80;99.90;;;;;;5013122;28;20255;-79
2022/01/01 06:31:51;;;;;;;4.90;3.67;;;7.60;99.90;;;;;;5029870;28;20271;-78
2022/01/01 06:34:16;;;;;;;5.13;4.13;;;7.50;99.90;;;;;;5013186;28;20239;-78
2022/01/01 06:36:42;;;;;;;9.47;4.90;;;7.40;99.90;;;;;;5013175;28;20240;-79
2022/01/01 06:39:08;;;;;;;7.57;5.80;;;7.30;99.90;;;;;;5015482;28;20565;-78
2022/01/01 06:41:33;;;;;;;14.43;7.47;;;7.10;99.90;;;;;;5030388;28;20189;-78
2022/01/01 06:43:59;;;;;;;12.80;8.30;;;7.00;99.90;;;;;;5030530;28;20184;-78
2022/01/01 06:46:25;;;;;;;17.00;10.43;;;6.90;99.90;;;;;;4995995;28;20286;-78
2022/01/01 06:48:50;;;;;;;17.53;11.37;;;6.90;99.90;;;;;;5028719;28;20611;-78
2022/01/01 06:51:16;;;;;;;24.97;15.27;;;6.90;99.90;;;;;;5028521;28;20200;-78
2022/01/01 06:53:42;;;;;;;19.90;13.73;;;6.90;99.90;;;;;;5031940;28;20422;-78
2022/01/01 06:56:08;;;;;;;22.50;13.87;;;6.80;99.90;;;;;;5031531;28;20427;-78
2022/01/01 06:58:34;;;;;;;21.03;13.70;;;7.00;99.90;;;;;;5029760;28;20280;-78
2022/01/01 07:01:00;;;;;;;20.50;12.67;;;6.90;99.90;;;;;;5029459;28;20184;-77
2022/01/01 07:03:25;;;;;;;31.23;15.07;;;6.80;99.90;;;;;;5029006;28;20436;-77
2022/01/01 07:05:51;;;;;;;21.87;13.37;;;6.90;99.90;;;;;;5026895;28;20216;-75
2022/01/01 07:08:17;;;;;;;23.27;14.13;;;6.80;99.90;;;;;;5028423;28;20338;-76
2022/01/01 07:10:44;;;;;;;24.67;14.43;;;6.80;99.90;;;;;;5028471;28;20234;-76
2022/01/01 07:13:11;;;;;;;25.93;14.40;;;6.80;99.90;;;;;;5028439;28;20419;-76
2022/01/01 07:15:37;;;;;;;24.43;15.70;;;6.90;99.90;;;;;;5031248;28;20946;-76
2022/01/01 07:18:02;;;;;;;22.57;14.03;;;6.90;99.90;;;;;;5032402;28;20431;-76
2022/01/01 07:20:28;;;;;;;22.23;14.40;;;6.90;99.90;;;;;;5032202;28;20189;-76
2022/01/01 07:22:53;;;;;;;24.70;14.63;;;6.90;99.90;;;;;;5032023;28;20273;-76
2022/01/01 07:25:20;;;;;;;21.60;13.47;;;6.90;99.90;;;;;;5014055;28;20620;-76
2022/01/01 07:27:46;;;;;;;21.90;14.17;;;7.00;99.90;;;;;;5031894;28;20204;-76
2022/01/01 07:30:12;;;;;;;19.97;11.37;;;6.90;99.90;;;;;;5030341;28;20457;-76
2022/01/01 07:32:43;;;;;;;12.47;8.47;;;7.00;99.90;;;;;;5030314;28;20425;-76
2022/01/01 07:35:10;;;;;;;7.50;6.10;;;7.00;99.90;;;;;;5031641;28;20431;-76
2022/01/01 07:37:36;;;;;;;11.73;6.97;;;7.00;99.90;;;;;;5030397;28;20501;-76
2022/01/01 07:40:02;;;;;;;8.93;5.90;;;7.00;99.90;;;;;;5031698;28;20479;-76
2022/01/01 07:42:28;;;;;;;5.70;4.33;;;7.10;99.90;;;;;;5030250;28;20466;-76
2022/01/01 07:44:54;;;;;;;5.80;4.67;;;7.30;99.90;;;;;;5031671;28;20473;-76
2022/01/01 07:47:19;;;;;;;4.60;3.17;;;7.40;99.90;;;;;;5030289;28;20208;-76
2022/01/01 07:49:45;;;;;;;3.53;3.23;;;7.50;99.90;;;;;;5030001;28;20604;-76
2022/01/01 07:52:11;;;;;;;3.70;3.13;;;7.70;99.90;;;;;;5031502;28;20211;-77
2022/01/01 07:54:37;;;;;;;8.00;4.90;;;7.70;99.90;;;;;;5030248;28;20184;-76
2022/01/01 07:57:03;;;;;;;6.00;4.43;;;7.70;99.90;;;;;;5029870;28;20932;-76
2022/01/01 07:59:29;;;;;;;6.03;4.90;;;7.70;99.90;;;;;;5031492;28;20224;-76
2022/01/01 08:01:54;;;;;;;6.50;4.60;;;7.70;99.90;;;;;;5031283;28;20841;-77
2022/01/01 08:04:20;;;;;;;9.10;6.63;;;7.80;99.90;;;;;;5030752;28;20294;-76
2022/01/01 08:06:46;;;;;;;16.07;9.73;;;7.70;99.90;;;;;;5031434;28;20213;-76
2022/01/01 08:09:13;;;;;;;19.37;13.63;;;7.70;99.90;;;;;;5030318;28;20225;-76
2022/01/01 08:11:39;;;;;;;21.50;14.30;;;8.20;99.90;;;;;;5031971;28;20329;-77
2022/01/01 08:14:05;;;;;;;16.60;11.30;;;8.90;99.90;;;;;;5031501;28;20961;-77
2022/01/01 08:16:30;;;;;;;19.87;12.77;;;10.20;99.90;;;;;;5031614;28;20219;-76
2022/01/01 08:18:56;;;;;;;18.93;11.90;;;11.60;99.90;;;;;;5031053;28;20330;-76
2022/01/01 08:21:22;;;;;;;15.70;10.47;;;12.90;99.90;;;;;;5031166;28;20186;-76
2022/01/01 08:23:47;;;;;;;16.67;11.50;;;14.10;99.90;;;;;;5031088;28;20191;-77
2022/01/01 08:26:13;;;;;;;13.63;9.70;;;15.10;99.90;;;;;;5030997;28;20216;-77
2022/01/01 08:28:39;;;;;;;14.33;10.13;;;16.00;99.40;;;;;;5030903;28;20207;-77
2022/01/01 08:31:04;;;;;;;11.23;8.90;;;16.80;97.90;;;;;;5030895;28;20181;-77
2022/01/01 08:33:30;;;;;;;11.60;9.03;;;17.40;96.50;;;;;;5030770;28;20186;-77
2022/01/01 08:35:55;;;;;;;13.50;10.30;;;17.60;95.30;;;;;;5030939;28;20560;-76
2022/01/01 08:38:21;;;;;;;19.33;13.33;;;18.00;94.80;;;;;;5030582;28;20580;-76
2022/01/01 08:40:47;;;;;;;14.93;11.53;;;18.20;92.80;;;;;;5029382;28;20242;-76
2022/01/01 08:43:12;;;;;;;14.53;10.90;;;18.70;92.30;;;;;;5029419;28;20182;-76
2022/01/01 08:45:38;;;;;;;14.43;10.93;;;19.00;91.30;;;;;;5012452;28;20215;-76
2022/01/01 08:48:08;;;;;;;15.07;10.00;;;19.20;90.30;;;;;;5030195;28;20264;-76
2022/01/01 08:50:33;;;;;;;14.63;10.77;;;19.40;89.90;;;;;;5030181;28;20468;-76
2022/01/01 08:52:59;;;;;;;11.57;10.37;;;19.50;87.90;;;;;;5030264;28;20426;-76
2022/01/01 08:55:25;;;;;;;11.80;10.60;;;19.60;88.10;;;;;;5030178;28;20545;-77
2022/01/01 08:57:51;;;;;;;16.63;13.13;;;19.60;86.40;;;;;;5030171;28;20574;-77
2022/01/01 09:00:17;;;;;;;16.10;13.80;;;19.80;85.80;;;;;;5028668;28;20419;-76
2022/01/01 09:02:43;;;;;;;13.10;11.30;;;20.00;84.50;;;;;;5030185;28;20190;-76
2022/01/01 09:05:09;;;;;;;13.10;11.10;;;19.70;83.60;;;;;;5029962;28;20422;-76
2022/01/01 09:07:35;;;;;;;13.63;10.87;;;18.90;85.10;;;;;;5029999;28;20210;-76
2022/01/01 09:10:03;;;;;;;12.50;10.40;;;17.50;90.00;;;;;;5029752;28;20447;-76
2022/01/01 09:12:29;;;;;;;11.13;8.93;;;16.00;93.20;;;;;;5029207;28;20191;-75
2022/01/01 09:14:55;;;;;;;14.13;10.07;;;14.70;96.80;;;;;;5027098;28;20423;-76
2022/01/01 09:17:21;;;;;;;12.87;9.07;;;13.90;99.50;;;;;;5028288;28;20672;-76
2022/01/01 09:19:48;;;;;;;10.63;8.27;;;13.20;99.90;;;;;;5028375;28;20449;-76
2022/01/01 09:22:13;;;;;;;10.70;8.10;;;12.80;99.90;;;;;;5028475;28;20934;-76
2022/01/01 09:24:39;;;;;;;15.63;9.37;;;12.30;99.90;;;;;;5028448;28;20434;-75
2022/01/01 09:27:05;;;;;;;15.67;8.80;;;11.60;99.90;;;;;;5028502;28;20221;-75
2022/01/01 09:29:31;;;;;;;15.00;8.40;;;11.30;99.90;;;;;;5028420;28;20215;-75
2022/01/01 09:31:57;;;;;;;12.90;8.10;;;10.90;99.90;;;;;;5026956;28;20424;-75
2022/01/01 09:34:22;;;;;;;12.07;8.10;;;10.80;99.90;;;;;;5027846;28;20180;-77
2022/01/01 09:36:50;;;;;;;11.83;8.43;;;11.30;99.90;;;;;;5026042;28;20430;-77
2022/01/01 09:39:16;;;;;;;10.30;7.73;;;12.80;99.90;;;;;;5028603;28;20200;-76
2022/01/01 09:41:43;;;;;;;12.67;7.10;;;14.90;99.90;;;;;;5028441;28;20435;-76
2022/01/01 09:44:17;;;;;;;9.60;7.10;;;17.00;96.50;;;;;;5028691;28;20455;-77
2022/01/01 09:46:45;;;;;;;10.73;8.40;;;18.20;92.80;;;;;;5028564;28;20574;-77
2022/01/01 09:49:13;;;;;;;8.27;7.30;;;19.30;90.70;;;;;;5028546;28;20910;-76
2022/01/01 09:51:40;;;;;;;17.23;11.10;;;20.50;84.80;;;;;;5027041;28;20460;-77
2022/01/01 09:54:07;;;;;;;11.50;8.70;;;21.70;81.20;;;;;;5028565;28;20425;-77
2022/01/01 09:56:32;;;;;;;8.53;7.10;;;22.50;75.50;;;;;;5027062;28;20461;-76
2022/01/01 09:58:58;;;;;;;7.43;6.73;;;23.20;72.80;;;;;;5028404;28;20478;-77
2022/01/01 10:01:24;;;;;;;8.47;7.27;;;23.80;69.50;;;;;;5028460;28;20192;-76
2022/01/01 10:03:51;;;;;;;7.60;6.60;;;24.30;67.40;;;;;;5027223;28;20932;-78
2022/01/01 10:06:19;;;;;;;11.13;7.40;;;24.60;64.70;;;;;;5028202;28;20208;-76
2022/01/01 10:08:56;;;;;;;10.43;6.77;;;24.50;63.50;;;;;;5028362;28;20450;-76
2022/01/01 10:11:23;;;;;;;8.77;7.87;;;24.70;62.40;;;;;;5028355;28;20419;-76
2022/01/01 10:13:49;;;;;;;10.30;9.20;;;25.40;61.60;;;;;;5028137;28;20415;-77
2022/01/01 10:16:16;;;;;;;10.07;7.00;;;25.30;60.10;;;;;;5026343;28;20962;-77
2022/01/01 10:18:44;;;;;;;7.90;6.97;;;25.50;59.20;;;;;;5027804;28;20204;-76
2022/01/01 10:21:14;;;;;;;7.83;7.03;;;25.90;57.90;;;;;;5027550;28;20434;-77
2022/01/01 10:23:46;;;;;;;7.50;6.77;;;26.10;57.60;;;;;;5027596;28;20485;-76
2022/01/01 10:29:12;;;;;;;7.17;6.57;;;26.80;55.80;;;;;;5026996;28;20450;-78
2022/01/01 10:31:51;;;;;;;26.30;20.70;;;27.00;53.90;;;;;;5027799;28;20913;-76
2022/01/01 10:34:18;;;;;;;9.10;7.90;;;27.10;53.40;;;;;;5027309;28;20419;-77
2022/01/01 10:36:47;;;;;;;7.47;6.77;;;27.20;53.60;;;;;;5027324;28;20481;-77
2022/01/01 10:39:14;;;;;;;8.07;6.97;;;27.10;52.70;;;;;;5027270;28;20869;-77
2022/01/01 10:41:49;;;;;;;10.80;7.00;;;27.30;53.10;;;;;;5039708;28;20429;-77
2022/01/01 10:44:15;;;;;;;7.00;6.30;;;27.00;52.20;;;;;;5028921;28;20431;-77
2022/01/01 10:46:41;;;;;;;6.30;5.70;;;26.40;52.80;;;;;;5025689;28;20947;-77
2022/01/01 10:49:43;;;;;;;9.47;7.00;;;26.30;54.30;;;;;;5027634;28;20632;-77
2022/01/01 10:52:28;;;;;;;6.00;5.43;;;26.90;53.50;;;;;;5031462;28;20445;-76
2022/01/01 10:54:57;;;;;;;5.90;5.30;;;26.50;53.40;;;;;;5029833;28;20423;-75
2022/01/01 10:57:34;;;;;;;7.07;6.17;;;26.90;53.00;;;;;;5031470;28;20418;-76
2022/01/01 11:00:27;;;;;;;6.37;5.77;;;27.30;53.10;;;;;;5031060;28;20474;-77
2022/01/01 11:02:54;;;;;;;6.00;5.07;;;27.70;53.00;;;;;;5029188;28;20530;-77
2022/01/01 11:05:32;;;;;;;6.00;4.93;;;27.10;52.70;;;;;;5030950;28;20510;-75
2022/01/01 11:07:58;;;;;;;6.60;4.90;;;27.00;53.40;;;;;;5030838;28;20429;-76
2022/01/01 11:10:25;;;;;;;6.93;5.50;;;27.40;52.80;;;;;;5030805;28;20478;-77
2022/01/01 11:12:51;;;;;;;6.30;5.00;;;27.80;52.30;;;;;;5030852;28;20896;-76
2022/01/01 11:15:17;;;;;;;6.00;5.50;;;28.10;52.10;;;;;;5030726;28;20526;-76
2022/01/01 11:17:44;;;;;;;7.20;6.10;;;28.10;51.70;;;;;;5030761;28;20427;-76
2022/01/01 11:20:11;;;;;;;6.70;5.50;;;28.30;51.80;;;;;;5030617;28;20453;-77
2022/01/01 11:22:36;;;;;;;7.07;5.10;;;28.40;52.00;;;;;;5030673;28;20506;-77
2022/01/01 11:25:03;;;;;;;4.93;4.50;;;28.40;50.60;;;;;;5029092;28;21082;-77
2022/01/01 11:27:29;;;;;;;5.13;4.63;;;28.40;51.60;;;;;;5030562;28;20628;-76
2022/01/01 11:29:56;;;;;;;4.47;4.07;;;27.90;51.50;;;;;;5030502;28;20443;-76
2022/01/01 11:32:37;;;;;;;4.63;3.60;;;27.50;52.40;;;;;;5029071;28;20199;-76
2022/01/01 11:35:07;;;;;;;3.73;3.43;;;27.20;52.40;;;;;;5030488;28;20836;-75
2022/01/01 11:38:08;;;;;;;5.30;3.73;;;27.00;53.50;;;;;;5029398;28;20802;-76
2022/01/01 11:40:58;;;;;;;5.10;4.60;;;26.90;53.70;;;;;;5021088;28;20490;-77
2022/01/01 11:43:41;;;;;;;5.73;5.03;;;27.00;54.20;;;;;;5030482;28;20499;-77
2022/01/01 11:46:20;;;;;;;6.20;5.60;;;26.70;53.80;;;;;;5030474;28;20579;-76
2022/01/01 11:48:47;;;;;;;7.00;5.90;;;26.80;54.10;;;;;;5030714;28;20438;-76
2022/01/01 11:51:29;;;;;;;8.00;7.20;;;26.80;54.10;;;;;;5030854;28;20454;-77
2022/01/01 11:54:08;;;;;;;6.97;6.27;;;27.00;53.30;;;;;;5030891;28;20411;-77
2022/01/01 11:56:46;;;;;;;5.70;5.20;;;26.90;52.50;;;;;;5030889;28;20580;-77
2022/01/01 11:59:37;;;;;;;5.90;4.90;;;26.90;52.70;;;;;;5030833;28;20826;-76
2022/01/01 12:02:18;;;;;;;5.57;5.07;;;26.60;53.70;;;;;;5030333;28;20430;-76
2022/01/01 12:04:45;;;;;;;6.10;4.93;;;25.60;54.20;;;;;;5030789;28;20548;-78
2022/01/01 12:07:16;;;;;;;4.50;4.03;;;24.80;57.10;;;;;;5030652;28;20470;-77
2022/01/01 12:10:05;;;;;;;5.10;4.37;;;24.30;56.70;;;;;;5029923;28;20489;-75
2022/01/01 12:12:51;;;;;;;5.03;3.93;;;24.00;57.80;;;;;;5029995;28;20759;-76
2022/01/01 12:15:20;;;;;;;4.83;3.70;;;23.30;62.40;;;;;;5029638;28;20425;-76
2022/01/01 12:17:53;;;;;;;5.13;3.43;;;22.50;64.00;;;;;;5030152;28;20434;-76
2022/01/01 12:20:22;;;;;;;4.23;3.43;;;21.50;70.00;;;;;;5030165;28;20427;-75
2022/01/01 12:22:49;;;;;;;3.83;3.13;;;20.70;74.10;;;;;;5029937;28;20424;-76
2022/01/01 12:25:28;;;;;;;13.47;4.77;;;20.20;79.20;;;;;;5028414;28;20512;-76
2022/01/01 12:27:57;;;;;;;5.10;3.37;;;19.60;81.60;;;;;;5029774;28;20435;-76
2022/01/01 12:30:33;;;;;;;5.03;3.87;;;19.10;86.80;;;;;;5029595;28;20412;-75
2022/01/01 12:32:59;;;;;;;6.60;2.83;;;18.80;89.80;;;;;;5029623;28;21190;-77
2022/01/01 12:35:45;;;;;;;3.70;2.63;;;18.40;90.80;;;;;;5029532;28;20425;-76
2022/01/01 12:38:13;;;;;;;3.20;2.53;;;18.00;91.90;;;;;;5029311;28;20545;-76
2022/01/01 12:40:59;;;;;;;2.93;2.40;;;17.70;94.10;;;;;;5027616;28;20422;-76
2022/01/01 12:43:26;;;;;;;5.27;3.27;;;17.50;95.70;;;;;;5029105;28;20509;-76
2022/01/01 12:45:53;;;;;;;3.20;2.73;;;17.20;95.80;;;;;;5029107;28;20842;-77
2022/01/01 12:48:23;;;;;;;3.53;3.10;;;16.90;96.60;;;;;;5029029;28;20754;-75
2022/01/01 12:51:01;;;;;;;3.10;2.80;;;16.70;97.70;;;;;;5028992;28;20441;-77
2022/01/01 12:53:27;;;;;;;2.77;2.20;;;16.50;98.30;;;;;;5029315;28;20416;-77
2022/01/01 12:56:26;;;;;;;3.53;2.90;;;16.40;99.30;;;;;;5029040;28;20916;-77